sensor_id;sensor_type;location;lat;lon;timestamp;P1;durP1;ratioP1;P2;durP2;ratioP2
74568;SDS011;63052;50.266;7.968;2022-09-01T00:04:08;1.93;;;1.80;;
74568;SDS011;63052;50.266;7.968;2022-09-01T00:14:13;3.17;;;2.23;;
74568;SDS011;63052;50.266;7.968;2022-09-01T00:24:16;5.60;;;2.07;;
74568;SDS011;63052;50.266;7.968;2022-09-01T00:34:19;2.80;;;1.67;;
74568;SDS011;63052;50.266;7.968;2022-09-01T00:44:22;3.67;;;2.13;;
74568;SDS011;63052;50.266;7.968;2022-09-01T00:54:28;4.93;;;2.17;;
74568;SDS011;63052;50.266;7.968;2022-09-01T01:04:31;4.97;;;1.82;;
74568;SDS011;63052;50.266;7.968;2022-09-01T01:14:34;2.72;;;1.80;;
74568;SDS011;63052;50.266;7.968;2022-09-01T01:24:38;3.43;;;1.87;;
74568;SDS011;63052;50.266;7.968;2022-09-01T01:34:42;3.40;;;1.70;;
74568;SDS011;63052;50.266;7.968;2022-09-01T01:44:46;3.93;;;2.30;;
74568;SDS011;63052;50.266;7.968;2022-09-01T01:54:49;3.00;;;1.90;;
74568;SDS011;63052;50.266;7.968;2022-09-01T02:04:52;3.70;;;1.63;;
74568;SDS011;63052;50.266;7.968;2022-09-01T02:14:55;3.45;;;2.10;;
74568;SDS011;63052;50.266;7.968;2022-09-01T02:24:59;16.87;;;1.87;;
74568;SDS011;63052;50.266;7.968;2022-09-01T02:35:02;4.83;;;2.03;;
74568;SDS011;63052;50.266;7.968;2022-09-01T02:45:08;15.25;;;3.75;;
74568;SDS011;63052;50.266;7.968;2022-09-01T02:55:13;7.60;;;2.50;;
74568;SDS011;63052;50.266;7.968;2022-09-01T03:05:21;6.30;;;2.98;;
74568;SDS011;63052;50.266;7.968;2022-09-01T03:15:27;5.23;;;1.80;;
74568;SDS011;63052;50.266;7.968;2022-09-01T03:25:30;3.90;;;1.50;;
74568;SDS011;63052;50.266;7.968;2022-09-01T03:35:33;5.20;;;1.53;;
74568;SDS011;63052;50.266;7.968;2022-09-01T03:45:36;1.47;;;1.20;;
74568;SDS011;63052;50.266;7.968;2022-09-01T03:55:38;4.97;;;2.70;;
74568;SDS011;63052;50.266;7.968;2022-09-01T04:05:42;5.67;;;1.60;;
74568;SDS011;63052;50.266;7.968;2022-09-01T04:15:45;7.03;;;1.87;;
74568;SDS011;63052;50.266;7.968;2022-09-01T04:25:48;9.23;;;2.27;;
74568;SDS011;63052;50.266;7.968;2022-09-01T04:35:51;3.93;;;1.67;;
74568;SDS011;63052;50.266;7.968;2022-09-01T04:45:55;1.67;;;1.57;;
74568;SDS011;63052;50.266;7.968;2022-09-01T04:56:01;9.60;;;1.60;;
74568;SDS011;63052;50.266;7.968;2022-09-01T05:06:14;3.27;;;1.30;;
74568;SDS011;63052;50.266;7.968;2022-09-01T05:16:19;2.97;;;1.50;;
74568;SDS011;63052;50.266;7.968;2022-09-01T05:26:24;6.27;;;1.77;;
74568;SDS011;63052;50.266;7.968;2022-09-01T05:36:31;1.63;;;1.27;;
74568;SDS011;63052;50.266;7.968;2022-09-01T05:46:34;4.93;;;1.80;;
74568;SDS011;63052;50.266;7.968;2022-09-01T05:56:39;2.33;;;1.60;;
74568;SDS011;63052;50.266;7.968;2022-09-01T06:06:43;1.23;;;1.13;;
74568;SDS011;63052;50.266;7.968;2022-09-01T06:16:48;2.67;;;1.30;;
74568;SDS011;63052;50.266;7.968;2022-09-01T06:26:53;3.60;;;1.37;;
74568;SDS011;63052;50.266;7.968;2022-09-01T06:36:55;4.83;;;1.70;;
74568;SDS011;63052;50.266;7.968;2022-09-01T06:46:59;2.17;;;1.37;;
74568;SDS011;63052;50.266;7.968;2022-09-01T06:57:02;4.90;;;1.63;;
74568;SDS011;63052;50.266;7.968;2022-09-01T07:07:04;9.93;;;1.80;;
74568;SDS011;63052;50.266;7.968;2022-09-01T07:17:08;5.47;;;1.60;;
74568;SDS011;63052;50.266;7.968;2022-09-01T07:27:11;4.80;;;1.40;;
74568;SDS011;63052;50.266;7.968;2022-09-01T07:37:14;5.00;;;1.83;;
74568;SDS011;63052;50.266;7.968;2022-09-01T07:47:18;5.50;;;1.90;;
74568;SDS011;63052;50.266;7.968;2022-09-01T07:57:22;5.23;;;1.70;;
74568;SDS011;63052;50.266;7.968;2022-09-01T08:07:25;6.70;;;1.63;;
74568;SDS011;63052;50.266;7.968;2022-09-01T08:17:27;4.57;;;1.60;;
74568;SDS011;63052;50.266;7.968;2022-09-01T08:27:30;1.53;;;1.10;;
74568;SDS011;63052;50.266;7.968;2022-09-01T08:37:36;4.13;;;1.47;;
74568;SDS011;63052;50.266;7.968;2022-09-01T08:47:39;3.47;;;1.40;;
74568;SDS011;63052;50.266;7.968;2022-09-01T08:57:43;9.73;;;1.70;;
74568;SDS011;63052;50.266;7.968;2022-09-01T09:07:57;7.03;;;1.53;;
74568;SDS011;63052;50.266;7.968;2022-09-01T09:18:02;3.80;;;1.57;;
74568;SDS011;63052;50.266;7.968;2022-09-01T09:28:21;6.13;;;2.10;;
74568;SDS011;63052;50.266;7.968;2022-09-01T09:38:24;3.10;;;1.40;;
74568;SDS011;63052;50.266;7.968;2022-09-01T09:48:31;3.30;;;1.60;;
74568;SDS011;63052;50.266;7.968;2022-09-01T09:58:38;4.10;;;1.93;;
74568;SDS011;63052;50.266;7.968;2022-09-01T10:08:43;5.43;;;1.90;;
74568;SDS011;63052;50.266;7.968;2022-09-01T10:18:47;6.73;;;1.80;;
74568;SDS011;63052;50.266;7.968;2022-09-01T10:39:00;14.27;;;3.03;;
74568;SDS011;63052;50.266;7.968;2022-09-01T10:49:11;3.03;;;1.90;;
74568;SDS011;63052;50.266;7.968;2022-09-01T11:19:43;3.47;;;2.00;;
74568;SDS011;63052;50.266;7.968;2022-09-01T11:30:02;3.40;;;2.33;;
74568;SDS011;63052;50.266;7.968;2022-09-01T11:40:02;3.10;;;2.00;;
74568;SDS011;63052;50.266;7.968;2022-09-01T11:50:07;3.83;;;1.90;;
74568;SDS011;63052;50.266;7.968;2022-09-01T12:00:23;5.57;;;1.83;;
74568;SDS011;63052;50.266;7.968;2022-09-01T12:10:33;3.20;;;1.90;;
74568;SDS011;63052;50.266;7.968;2022-09-01T12:20:38;12.17;;;3.17;;
74568;SDS011;63052;50.266;7.968;2022-09-01T12:30:41;9.33;;;2.40;;
74568;SDS011;63052;50.266;7.968;2022-09-01T12:40:50;10.80;;;2.20;;
74568;SDS011;63052;50.266;7.968;2022-09-01T12:50:50;14.70;;;2.57;;
74568;SDS011;63052;50.266;7.968;2022-09-01T13:01:00;8.13;;;2.73;;
74568;SDS011;63052;50.266;7.968;2022-09-01T13:11:06;7.00;;;2.17;;
74568;SDS011;63052;50.266;7.968;2022-09-01T13:21:11;4.27;;;1.87;;
74568;SDS011;63052;50.266;7.968;2022-09-01T13:31:14;1.97;;;1.63;;
74568;SDS011;63052;50.266;7.968;2022-09-01T13:41:18;2.90;;;1.47;;
74568;SDS011;63052;50.266;7.968;2022-09-01T13:51:28;2.10;;;1.53;;
74568;SDS011;63052;50.266;7.968;2022-09-01T14:01:29;4.12;;;1.85;;
74568;SDS011;63052;50.266;7.968;2022-09-01T14:11:31;4.23;;;1.50;;
74568;SDS011;63052;50.266;7.968;2022-09-01T14:21:34;4.73;;;1.77;;
74568;SDS011;63052;50.266;7.968;2022-09-01T14:31:37;2.43;;;1.47;;
74568;SDS011;63052;50.266;7.968;2022-09-01T14:41:39;2.25;;;1.70;;
74568;SDS011;63052;50.266;7.968;2022-09-01T14:51:42;3.10;;;2.20;;
74568;SDS011;63052;50.266;7.968;2022-09-01T15:01:44;1.85;;;1.67;;
74568;SDS011;63052;50.266;7.968;2022-09-01T15:11:48;8.43;;;1.70;;
74568;SDS011;63052;50.266;7.968;2022-09-01T15:21:50;3.35;;;1.80;;
74568;SDS011;63052;50.266;7.968;2022-09-01T15:31:53;3.83;;;1.70;;
74568;SDS011;63052;50.266;7.968;2022-09-01T15:41:55;2.87;;;1.70;;
74568;SDS011;63052;50.266;7.968;2022-09-01T15:51:58;2.80;;;1.50;;
74568;SDS011;63052;50.266;7.968;2022-09-01T16:02:00;1.40;;;1.20;;
74568;SDS011;63052;50.266;7.968;2022-09-01T16:12:03;1.70;;;1.27;;
74568;SDS011;63052;50.266;7.968;2022-09-01T16:22:15;2.53;;;1.77;;
74568;SDS011;63052;50.266;7.968;2022-09-01T16:32:25;2.00;;;1.37;;
74568;SDS011;63052;50.266;7.968;2022-09-01T16:42:31;1.55;;;1.42;;
74568;SDS011;63052;50.266;7.968;2022-09-01T16:52:44;4.65;;;1.92;;
74568;SDS011;63052;50.266;7.968;2022-09-01T17:02:49;2.25;;;1.82;;
74568;SDS011;63052;50.266;7.968;2022-09-01T17:12:54;4.65;;;1.70;;
74568;SDS011;63052;50.266;7.968;2022-09-01T17:22:57;1.80;;;1.60;;
74568;SDS011;63052;50.266;7.968;2022-09-01T17:43:45;4.15;;;1.32;;
74568;SDS011;63052;50.266;7.968;2022-09-01T17:54:02;1.87;;;1.25;;
74568;SDS011;63052;50.266;7.968;2022-09-01T18:14:58;19.20;;;3.70;;
74568;SDS011;63052;50.266;7.968;2022-09-01T18:24:52;22.07;;;4.55;;
74568;SDS011;63052;50.266;7.968;2022-09-01T18:35:10;11.45;;;2.95;;
74568;SDS011;63052;50.266;7.968;2022-09-01T18:45:23;16.32;;;3.83;;
74568;SDS011;63052;50.266;7.968;2022-09-01T18:55:30;30.32;;;5.10;;
74568;SDS011;63052;50.266;7.968;2022-09-01T19:05:44;24.20;;;4.47;;
74568;SDS011;63052;50.266;7.968;2022-09-01T19:25:52;12.80;;;3.43;;
74568;SDS011;63052;50.266;7.968;2022-09-01T19:36:00;13.80;;;4.92;;
74568;SDS011;63052;50.266;7.968;2022-09-01T19:56:32;9.88;;;3.40;;
74568;SDS011;63052;50.266;7.968;2022-09-01T20:06:50;31.47;;;4.70;;
74568;SDS011;63052;50.266;7.968;2022-09-01T20:17:00;28.95;;;4.80;;
74568;SDS011;63052;50.266;7.968;2022-09-01T20:37:42;22.53;;;4.50;;
74568;SDS011;63052;50.266;7.968;2022-09-01T20:47:46;18.77;;;3.10;;
74568;SDS011;63052;50.266;7.968;2022-09-01T20:57:56;12.33;;;3.22;;
74568;SDS011;63052;50.266;7.968;2022-09-01T21:18:24;5.80;;;2.10;;
74568;SDS011;63052;50.266;7.968;2022-09-01T21:28:29;7.40;;;2.13;;
74568;SDS011;63052;50.266;7.968;2022-09-01T21:38:32;17.40;;;2.23;;
74568;SDS011;63052;50.266;7.968;2022-09-01T21:48:34;16.13;;;3.57;;
74568;SDS011;63052;50.266;7.968;2022-09-01T21:58:37;18.12;;;2.30;;
74568;SDS011;63052;50.266;7.968;2022-09-01T22:08:40;10.70;;;1.93;;
74568;SDS011;63052;50.266;7.968;2022-09-01T22:18:43;12.28;;;1.70;;
74568;SDS011;63052;50.266;7.968;2022-09-01T22:28:45;4.80;;;1.67;;
74568;SDS011;63052;50.266;7.968;2022-09-01T22:38:48;6.13;;;2.07;;
74568;SDS011;63052;50.266;7.968;2022-09-01T22:48:51;6.03;;;1.67;;
74568;SDS011;63052;50.266;7.968;2022-09-01T22:58:56;5.73;;;2.10;;
74568;SDS011;63052;50.266;7.968;2022-09-01T23:09:01;5.10;;;1.93;;
74568;SDS011;63052;50.266;7.968;2022-09-01T23:19:04;4.07;;;1.83;;
74568;SDS011;63052;50.266;7.968;2022-09-01T23:29:07;3.60;;;1.50;;
74568;SDS011;63052;50.266;7.968;2022-09-01T23:39:09;2.70;;;1.47;;
74568;SDS011;63052;50.266;7.968;2022-09-01T23:49:13;6.87;;;1.50;;
74568;SDS011;63052;50.266;7.968;2022-09-01T23:59:17;9.07;;;1.73;;
